createdAt,value
2022-12-01T00:03:34.836Z,72.08
2022-12-01T00:08:40.520Z,72.08
2022-12-01T00:13:45.965Z,71.98
2022-12-01T00:18:53.763Z,72.08
2022-12-01T00:23:59.900Z,71.91
2022-12-01T00:29:05.602Z,71.93
2022-12-01T00:34:14.038Z,72.04
2022-12-01T00:39:19.427Z,71.98
2022-12-01T00:44:24.815Z,71.43
2022-12-01T00:49:30.442Z,71.37
2022-12-01T00:54:35.830Z,71.68
2022-12-01T00:59:41.496Z,71.39
2022-12-01T01:04:46.881Z,71.64
2022-12-01T01:09:52.275Z,71.59
2022-12-01T01:14:57.736Z,71.74
2022-12-01T01:20:04.780Z,71.39
2022-12-01T01:25:10.575Z,71.51
2022-12-01T01:30:16.709Z,71.52
2022-12-01T01:35:22.095Z,70.81
2022-12-01T01:40:27.478Z,71.04
2022-12-01T01:45:33.277Z,71.47
2022-12-01T01:50:39.382Z,70.73
2022-12-01T01:55:45.980Z,71.23
2022-12-01T02:00:51.473Z,71.20
2022-12-01T02:06:00.544Z,70.82
2022-12-01T02:11:07.981Z,70.68
2022-12-01T02:16:19.327Z,70.37
2022-12-01T02:21:36.696Z,70.70
2022-12-01T02:26:54.280Z,70.39
2022-12-01T02:32:32.773Z,70.67
2022-12-01T02:37:59.022Z,69.87
2022-12-01T02:43:22.555Z,70.60
2022-12-01T02:48:39.765Z,69.86
2022-12-01T02:53:45.666Z,70.28
2022-12-01T02:58:51.801Z,70.28
2022-12-01T03:04:14.698Z,70.10
2022-12-01T03:09:32.347Z,69.90
2022-12-01T03:14:58.845Z,69.75
2022-12-01T03:20:11.857Z,69.86
2022-12-01T03:25:19.098Z,69.42
2022-12-01T03:30:30.096Z,69.87
2022-12-01T03:35:38.574Z,69.50
2022-12-01T03:40:46.148Z,69.37
2022-12-01T03:46:06.637Z,68.69
2022-12-01T03:51:16.164Z,69.10
2022-12-01T03:56:24.724Z,68.54
2022-12-01T04:01:34.983Z,68.88
2022-12-01T04:06:43.745Z,69.20
2022-12-01T04:12:07.006Z,68.74
2022-12-01T04:17:12.390Z,68.98
2022-12-01T04:22:17.777Z,68.18
2022-12-01T04:27:23.162Z,68.82
2022-12-01T04:32:28.715Z,68.43
2022-12-01T04:37:34.270Z,68.25
2022-12-01T04:42:39.832Z,68.56
2022-12-01T04:47:45.358Z,67.84
2022-12-01T04:52:50.766Z,68.07
2022-12-01T04:57:56.429Z,68.05
2022-12-01T05:03:02.250Z,68.58
2022-12-01T05:08:07.891Z,67.49
2022-12-01T05:13:13.451Z,67.82
2022-12-01T05:18:18.937Z,67.83
2022-12-01T05:23:29.667Z,67.78
2022-12-01T05:28:35.961Z,67.34
2022-12-01T05:33:41.752Z,67.89
2022-12-01T05:38:47.227Z,68.00
2022-12-01T05:43:52.785Z,67.70
2022-12-01T05:48:58.177Z,67.86
2022-12-01T05:54:03.841Z,67.42
2022-12-01T05:59:09.243Z,67.48
2022-12-01T06:04:14.761Z,67.48
2022-12-01T06:09:20.178Z,67.45
2022-12-01T06:14:25.640Z,67.18
2022-12-01T06:19:31.739Z,66.99
2022-12-01T06:24:37.123Z,66.99
2022-12-01T06:29:42.575Z,66.84
2022-12-01T06:34:47.984Z,66.57
2022-12-01T06:39:53.446Z,66.84
2022-12-01T06:44:59.056Z,66.94
2022-12-01T06:50:07.027Z,66.91
2022-12-01T06:55:12.436Z,66.57
2022-12-01T07:00:18.928Z,66.72
2022-12-01T07:05:24.496Z,66.55
2022-12-01T07:10:29.884Z,66.20
2022-12-01T07:15:35.275Z,66.30
2022-12-01T07:20:43.203Z,66.18
2022-12-01T07:25:48.939Z,66.08
2022-12-01T07:30:54.407Z,66.40
2022-12-01T07:36:00.303Z,66.12
2022-12-01T07:41:08.015Z,66.45
2022-12-01T07:46:22.300Z,66.56
2022-12-01T07:51:25.492Z,66.51
2022-12-01T07:56:31.052Z,66.13
2022-12-01T08:01:40.279Z,66.49
2022-12-01T08:06:43.737Z,66.24
2022-12-01T08:11:49.132Z,66.35
2022-12-01T08:16:54.518Z,67.17
2022-12-01T08:21:59.909Z,66.65
2022-12-01T08:27:05.391Z,66.79
2022-12-01T08:32:10.820Z,66.79
2022-12-01T08:37:16.284Z,66.66
2022-12-01T08:42:21.854Z,66.96
2022-12-01T08:47:29.890Z,66.89
2022-12-01T08:52:35.864Z,67.15
2022-12-01T08:57:41.252Z,65.61
2022-12-01T09:02:47.054Z,66.28
2022-12-01T09:07:54.256Z,66.68
2022-12-01T09:12:59.887Z,66.68
2022-12-01T09:18:06.791Z,66.90
2022-12-01T09:23:12.237Z,66.82
2022-12-01T09:28:18.186Z,66.54
2022-12-01T09:33:23.645Z,66.38
2022-12-01T09:38:31.576Z,66.38
2022-12-01T09:43:45.998Z,66.25
2022-12-01T09:48:54.731Z,66.29
2022-12-01T09:54:02.007Z,66.14
2022-12-01T09:59:10.418Z,65.45
2022-12-01T10:04:18.854Z,65.10
2022-12-01T10:09:30.374Z,65.02
2022-12-01T10:14:38.203Z,64.79
2022-12-01T10:20:07.762Z,64.79
2022-12-01T10:25:16.270Z,64.73
2022-12-01T10:30:23.951Z,64.53
2022-12-01T10:35:37.208Z,64.60
2022-12-01T10:40:44.332Z,64.60
2022-12-01T10:45:52.091Z,64.47
2022-12-01T10:51:00.627Z,63.66
2022-12-01T10:56:21.636Z,64.22
2022-12-01T11:01:34.469Z,63.59
2022-12-01T11:06:41.687Z,63.61
2022-12-01T11:11:47.887Z,63.64
2022-12-01T11:16:54.671Z,63.64
2022-12-01T11:22:03.297Z,63.30
2022-12-01T11:27:11.816Z,62.92
2022-12-01T11:32:23.414Z,63.24
2022-12-01T11:37:41.990Z,63.07
2022-12-01T11:42:53.089Z,63.07
2022-12-01T11:48:27.415Z,62.90
2022-12-01T11:53:38.505Z,62.98
2022-12-01T11:58:46.007Z,62.79
2022-12-01T12:04:13.584Z,62.71
2022-12-01T12:09:30.743Z,62.78
2022-12-01T12:14:51.403Z,62.71
2022-12-01T12:20:08.574Z,62.60
2022-12-01T12:25:23.054Z,62.52
2022-12-01T12:30:31.856Z,62.67
2022-12-01T12:35:43.488Z,62.35
2022-12-01T12:41:08.640Z,62.21
2022-12-01T12:46:17.121Z,62.16
2022-12-01T12:51:43.457Z,61.99
2022-12-01T12:56:51.941Z,62.10
2022-12-01T13:02:00.527Z,61.98
2022-12-01T13:07:09.140Z,61.50
2022-12-01T13:12:20.914Z,61.81
2022-12-01T13:17:29.726Z,62.08
2022-12-01T13:22:37.229Z,61.54
2022-12-01T13:27:45.435Z,61.96
2022-12-01T13:32:52.953Z,61.50
2022-12-01T13:38:16.526Z,61.43
2022-12-01T13:43:24.131Z,61.07
2022-12-01T13:48:41.828Z,60.83
2022-12-01T13:54:05.358Z,61.40
2022-12-01T13:59:41.944Z,61.11
2022-12-01T14:04:47.840Z,61.09
2022-12-01T14:09:59.909Z,61.09
2022-12-01T14:15:08.464Z,59.59
2022-12-01T14:20:23.023Z,60.71
2022-12-01T14:25:30.940Z,60.89
2022-12-01T14:30:49.997Z,61.09
2022-12-01T14:35:57.010Z,60.74
2022-12-01T14:41:04.247Z,61.08
2022-12-01T14:46:12.734Z,61.10
2022-12-01T14:51:30.277Z,60.83
2022-12-01T14:56:37.520Z,60.97
2022-12-01T15:01:43.143Z,60.71
2022-12-01T15:06:50.401Z,60.83
2022-12-01T15:11:58.806Z,61.02
2022-12-01T15:17:05.877Z,60.97
2022-12-01T15:22:17.033Z,61.17
2022-12-01T15:27:31.306Z,61.26
2022-12-01T15:32:38.404Z,60.99
2022-12-01T15:37:45.652Z,61.63
2022-12-01T15:43:06.153Z,61.30
2022-12-01T15:48:25.854Z,61.76
2022-12-01T15:53:33.891Z,61.93
2022-12-01T15:58:45.288Z,61.58
2022-12-01T16:04:03.870Z,61.58
2022-12-01T16:09:21.464Z,61.96
2022-12-01T16:14:26.862Z,62.07
2022-12-01T16:19:36.092Z,62.07
2022-12-01T16:24:50.585Z,62.14
2022-12-01T16:30:02.162Z,62.15
2022-12-01T16:35:09.981Z,62.25
2022-12-01T16:40:18.403Z,62.08
2022-12-01T16:45:25.491Z,61.92
2022-12-01T16:50:30.920Z,62.00
2022-12-01T16:55:57.152Z,61.94
2022-12-01T17:01:02.657Z,61.79
2022-12-01T17:06:08.686Z,61.89
2022-12-01T17:11:14.222Z,61.82
2022-12-01T17:16:19.972Z,61.98
2022-12-01T17:21:25.386Z,61.98
2022-12-01T17:26:30.794Z,61.80
2022-12-01T17:31:36.298Z,61.95
2022-12-01T17:36:41.954Z,61.72
2022-12-01T17:41:47.358Z,61.65
2022-12-01T17:46:53.201Z,61.53
2022-12-01T17:51:58.952Z,61.81
2022-12-01T17:57:04.445Z,61.56
2022-12-01T18:02:13.193Z,60.45
2022-12-01T18:07:18.616Z,60.99
2022-12-01T18:12:24.537Z,61.49
2022-12-01T18:17:30.036Z,61.13
2022-12-01T18:22:35.432Z,61.39
2022-12-01T18:27:40.892Z,61.29
2022-12-01T18:32:46.283Z,61.34
2022-12-01T18:37:51.754Z,61.15
2022-12-01T18:42:57.136Z,61.74
2022-12-01T18:48:04.045Z,59.81
2022-12-01T18:53:10.338Z,60.80
2022-12-01T18:58:15.731Z,61.14
2022-12-01T19:03:21.512Z,61.36
2022-12-01T19:08:26.968Z,61.34
2022-12-01T19:13:34.064Z,61.66
2022-12-01T19:18:40.779Z,61.66
2022-12-01T19:23:47.228Z,61.96
2022-12-01T19:28:52.793Z,61.91
2022-12-01T19:33:58.329Z,61.95
2022-12-01T19:39:07.501Z,61.92
2022-12-01T19:44:12.112Z,62.24
2022-12-01T19:49:17.686Z,62.45
2022-12-01T19:54:23.282Z,62.45
2022-12-01T19:59:28.746Z,62.53
2022-12-01T20:04:34.448Z,62.53
2022-12-01T20:09:44.337Z,62.71
2022-12-01T20:14:49.412Z,62.28
2022-12-01T20:19:55.425Z,62.54
2022-12-01T20:25:00.815Z,62.23
2022-12-01T20:30:07.892Z,63.08
2022-12-01T20:35:13.352Z,63.08
2022-12-01T20:40:18.886Z,62.82
2022-12-01T20:45:24.365Z,62.73
2022-12-01T20:50:29.782Z,62.97
2022-12-01T20:55:37.166Z,63.16
2022-12-01T21:00:47.398Z,63.16
2022-12-01T21:05:52.892Z,62.85
2022-12-01T21:10:58.288Z,62.85
2022-12-01T21:16:09.578Z,63.14
2022-12-01T21:21:15.476Z,63.12
2022-12-01T21:26:20.983Z,62.94
2022-12-01T21:31:27.458Z,62.98
2022-12-01T21:36:34.168Z,63.24
2022-12-01T21:41:39.940Z,63.07
2022-12-01T21:46:47.913Z,63.23
2022-12-01T21:51:54.139Z,63.33
2022-12-01T21:57:00.607Z,63.31
2022-12-01T22:02:09.215Z,63.42
2022-12-01T22:07:16.211Z,63.42
2022-12-01T22:12:27.614Z,63.49
2022-12-01T22:17:33.285Z,63.49
2022-12-01T22:22:40.252Z,63.70
2022-12-01T22:27:45.741Z,63.44
2022-12-01T22:33:04.433Z,63.96
2022-12-01T22:38:21.918Z,63.77
2022-12-01T22:43:46.788Z,63.77
2022-12-01T22:49:16.408Z,63.71
2022-12-01T22:54:27.545Z,64.08
2022-12-01T22:59:38.893Z,63.97
2022-12-01T23:04:45.209Z,64.16
2022-12-01T23:09:50.741Z,64.05
2022-12-01T23:14:59.306Z,63.97
2022-12-01T23:20:13.469Z,64.36
2022-12-01T23:25:20.874Z,64.42
2022-12-01T23:30:26.511Z,64.42
2022-12-01T23:35:34.170Z,64.85
2022-12-01T23:40:40.351Z,64.50
2022-12-01T23:45:46.850Z,64.59
2022-12-01T23:50:54.380Z,64.65
2022-12-01T23:56:02.859Z,64.42
